Time;durP1;ratioP1;P1;durP2;ratioP2;P2;SDS_P1;SDS_P2;PMS_P1;PMS_P2;Temp;Humidity;BMP_temperature;BMP_pressure;BME280_temperature;BME280_humidity;BME280_pressure;Samples;Min_cycle;Max_cycle;Signal;HPM_P1;HPM_P2
2023/08/25 00:01:31;;;;;;;845.80;565.70;;;;;;;;;;5104011;28;20039;-54
2023/08/25 00:03:57;;;;;;;849.63;530.15;;;;;;;;;;5101324;28;20015;-56
2023/08/25 00:06:23;;;;;;;886.08;606.60;;;;;;;;;;5090326;28;20032;-57
2023/08/25 00:08:48;;;;;;;836.00;560.30;;;;;;;;;;5082391;28;20028;-56
2023/08/25 00:11:13;;;;;;;829.20;572.03;;;;;;;;;;5085850;28;20042;-56
2023/08/25 00:13:39;;;;;;;822.70;565.85;;;;;;;;;;5084143;28;20111;-55
2023/08/25 00:16:08;;;;;;;833.75;571.42;;;;;;;;;;5066874;28;20039;-54
2023/08/25 00:18:34;;;;;;;827.40;573.33;;;;;;;;;;5083732;28;20016;-57
2023/08/25 00:20:59;;;;;;;825.65;556.42;;;;;;;;;;5086316;28;20051;-55
2023/08/25 00:23:25;;;;;;;831.47;555.80;;;;;;;;;;5082849;28;20052;-56
2023/08/25 00:25:50;;;;;;;824.85;567.88;;;;;;;;;;5100890;28;20067;-56
2023/08/25 00:28:15;;;;;;;827.25;562.80;;;;;;;;;;5084430;28;20397;-56
2023/08/25 00:30:40;;;;;;;825.42;529.33;;;;;;;;;;5086072;28;20569;-54
2023/08/25 00:33:06;;;;;;;828.93;538.50;;;;;;;;;;5084158;28;20024;-57
2023/08/25 00:35:31;;;;;;;837.03;523.60;;;;;;;;;;5086000;28;20514;-56
2023/08/25 00:37:57;;;;;;;831.60;533.60;;;;;;;;;;5083987;28;20186;-54
2023/08/25 00:40:23;;;;;;;824.15;530.92;;;;;;;;;;5086258;28;20249;-56
2023/08/25 00:42:48;;;;;;;828.13;565.55;;;;;;;;;;5083968;28;20031;-56
2023/08/25 00:45:13;;;;;;;840.60;512.67;;;;;;;;;;5085016;28;20108;-57
2023/08/25 00:47:38;;;;;;;823.83;536.08;;;;;;;;;;5083744;28;20728;-56
2023/08/25 00:50:05;;;;;;;822.63;510.08;;;;;;;;;;5085529;28;20043;-57
2023/08/25 00:52:30;;;;;;;828.47;545.05;;;;;;;;;;5084388;28;20047;-55
2023/08/25 00:54:56;;;;;;;822.20;530.50;;;;;;;;;;5084670;28;20029;-57
2023/08/25 00:57:22;;;;;;;831.90;549.95;;;;;;;;;;5082868;28;20543;-57
2023/08/25 00:59:48;;;;;;;829.78;523.38;;;;;;;;;;5085440;28;20366;-55
2023/08/25 01:02:14;;;;;;;826.40;543.25;;;;;;;;;;5083151;28;20107;-57
2023/08/25 01:04:39;;;;;;;826.97;525.03;;;;;;;;;;5085834;28;20046;-58
2023/08/25 01:07:04;;;;;;;841.83;512.10;;;;;;;;;;5082987;28;20493;-53
2023/08/25 01:09:31;;;;;;;843.20;521.15;;;;;;;;;;5085019;28;20025;-56
2023/08/25 01:12:01;;;;;;;869.58;556.13;;;;;;;;;;5082863;28;20031;-56
2023/08/25 01:14:40;;;;;;;834.92;522.35;;;;;;;;;;5085430;28;20027;-56
2023/08/25 01:17:19;;;;;;;826.60;521.95;;;;;;;;;;5084481;28;20024;-58
2023/08/25 01:19:57;;;;;;;840.38;554.15;;;;;;;;;;5084820;28;20038;-57
2023/08/25 01:22:26;;;;;;;839.72;558.25;;;;;;;;;;5084176;28;20028;-56
2023/08/25 01:24:52;;;;;;;836.10;555.80;;;;;;;;;;5082354;28;20471;-55
2023/08/25 01:27:17;;;;;;;820.63;449.05;;;;;;;;;;5079865;28;20015;-57
2023/08/25 01:29:43;;;;;;;853.95;541.08;;;;;;;;;;5083762;28;20105;-56
2023/08/25 01:32:08;;;;;;;848.85;549.28;;;;;;;;;;5082670;28;20377;-57
2023/08/25 01:34:34;;;;;;;849.23;546.53;;;;;;;;;;5084681;28;20027;-56
2023/08/25 01:37:10;;;;;;;851.88;517.65;;;;;;;;;;5081157;28;20261;-55
2023/08/25 01:39:36;;;;;;;853.20;541.20;;;;;;;;;;5084655;28;20028;-53
2023/08/25 01:42:02;;;;;;;838.85;479.42;;;;;;;;;;5082646;28;20043;-54
2023/08/25 01:44:29;;;;;;;800.95;382.73;;;;;;;;;;5081344;28;20035;-56
2023/08/25 01:46:58;;;;;;;807.08;386.63;;;;;;;;;;5080627;28;20016;-54
2023/08/25 01:49:24;;;;;;;804.38;380.08;;;;;;;;;;5080323;28;20047;-53
2023/08/25 01:51:49;;;;;;;809.70;384.88;;;;;;;;;;5068229;28;20048;-56
2023/08/25 01:54:14;;;;;;;813.60;393.98;;;;;;;;;;5084718;28;20027;-57
2023/08/25 01:56:40;;;;;;;854.50;521.83;;;;;;;;;;5082903;28;20024;-54
2023/08/25 01:59:05;;;;;;;889.67;605.63;;;;;;;;;;5064626;28;20032;-54
2023/08/25 02:01:30;;;;;;;878.30;552.05;;;;;;;;;;5076620;28;20485;-52
2023/08/25 02:03:56;;;;;;;870.28;552.42;;;;;;;;;;5082244;28;20523;-56
2023/08/25 02:06:21;;;;;;;851.80;481.00;;;;;;;;;;5084563;28;20492;-56
2023/08/25 02:08:47;;;;;;;866.07;524.13;;;;;;;;;;5082349;28;20025;-58
2023/08/25 02:11:12;;;;;;;899.17;625.38;;;;;;;;;;5083318;28;20256;-56
2023/08/25 02:13:37;;;;;;;842.30;469.75;;;;;;;;;;5081720;28;20024;-55
2023/08/25 02:16:03;;;;;;;851.08;519.38;;;;;;;;;;5083737;28;20134;-57
2023/08/25 02:18:28;;;;;;;844.88;474.33;;;;;;;;;;5083739;28;20073;-57
2023/08/25 02:20:54;;;;;;;851.95;477.42;;;;;;;;;;5088671;28;20028;-55
2023/08/25 02:23:20;;;;;;;845.05;446.20;;;;;;;;;;5086766;28;20016;-56
2023/08/25 02:25:45;;;;;;;849.60;519.88;;;;;;;;;;5087216;28;20030;-55
2023/08/25 02:28:10;;;;;;;882.15;559.03;;;;;;;;;;5086722;28;20078;-55
2023/08/25 02:30:35;;;;;;;842.70;451.60;;;;;;;;;;5087869;28;20107;-56
2023/08/25 02:33:01;;;;;;;854.78;493.23;;;;;;;;;;5087109;28;20745;-57
2023/08/25 02:35:26;;;;;;;851.08;484.10;;;;;;;;;;5084882;28;20068;-56
2023/08/25 02:37:58;;;;;;;848.97;487.90;;;;;;;;;;5087245;28;20024;-54
2023/08/25 02:40:24;;;;;;;853.45;499.35;;;;;;;;;;5088352;28;20259;-53
2023/08/25 02:42:49;;;;;;;857.90;535.55;;;;;;;;;;5086196;28;20016;-55
2023/08/25 02:45:14;;;;;;;854.97;521.03;;;;;;;;;;5085853;28;20496;-55
2023/08/25 02:47:40;;;;;;;853.53;487.48;;;;;;;;;;5086432;28;20068;-57
2023/08/25 02:50:05;;;;;;;855.00;502.38;;;;;;;;;;5088255;28;20108;-54
2023/08/25 02:52:30;;;;;;;851.38;497.80;;;;;;;;;;5085845;28;20044;-55
2023/08/25 02:54:56;;;;;;;857.92;524.33;;;;;;;;;;5088049;28;20047;-57
2023/08/25 02:57:21;;;;;;;861.25;536.38;;;;;;;;;;5085160;28;20406;-54
2023/08/25 02:59:46;;;;;;;853.40;529.20;;;;;;;;;;5087896;28;20036;-55
2023/08/25 03:02:11;;;;;;;861.33;534.03;;;;;;;;;;5085651;28;20282;-56
2023/08/25 03:04:37;;;;;;;860.50;527.05;;;;;;;;;;5087848;28;20027;-56
2023/08/25 03:07:02;;;;;;;862.08;502.05;;;;;;;;;;5084648;28;20101;-57
2023/08/25 03:09:27;;;;;;;854.22;456.52;;;;;;;;;;5087406;28;20032;-57
2023/08/25 03:11:52;;;;;;;863.63;493.50;;;;;;;;;;5085519;28;20718;-55
2023/08/25 03:14:18;;;;;;;867.53;545.40;;;;;;;;;;5086578;28;20107;-56
2023/08/25 03:16:43;;;;;;;827.38;409.83;;;;;;;;;;5085508;28;20241;-56
2023/08/25 03:19:09;;;;;;;811.22;368.42;;;;;;;;;;5086091;28;20110;-56
2023/08/25 03:21:34;;;;;;;806.67;344.80;;;;;;;;;;5084028;28;20117;-54
2023/08/25 03:23:59;;;;;;;807.92;356.63;;;;;;;;;;5085907;28;20030;-55
2023/08/25 03:26:25;;;;;;;810.33;363.05;;;;;;;;;;5087453;28;20020;-55
2023/08/25 03:28:50;;;;;;;811.83;366.42;;;;;;;;;;5085627;28;20024;-55
2023/08/25 03:31:15;;;;;;;802.90;354.42;;;;;;;;;;5086244;28;20603;-56
2023/08/25 03:33:41;;;;;;;807.78;366.35;;;;;;;;;;5084584;28;20127;-56
2023/08/25 03:36:06;;;;;;;807.70;358.60;;;;;;;;;;5086555;28;20055;-56
2023/08/25 03:38:31;;;;;;;808.38;357.58;;;;;;;;;;5086004;28;20028;-52
2023/08/25 03:40:57;;;;;;;822.97;415.65;;;;;;;;;;5086408;28;20520;-55
2023/08/25 03:43:22;;;;;;;854.05;456.08;;;;;;;;;;5084677;28;20101;-55
2023/08/25 03:45:48;;;;;;;865.72;501.48;;;;;;;;;;5085147;28;20070;-56
2023/08/25 03:48:13;;;;;;;858.20;469.48;;;;;;;;;;5084525;28;20020;-54
2023/08/25 03:50:38;;;;;;;863.10;495.20;;;;;;;;;;5086275;28;20028;-56
2023/08/25 03:53:03;;;;;;;828.85;412.50;;;;;;;;;;5084724;28;20679;-55
2023/08/25 03:55:29;;;;;;;810.50;361.15;;;;;;;;;;5086719;28;20020;-57
2023/08/25 03:57:54;;;;;;;843.80;469.65;;;;;;;;;;5083529;28;20518;-53
2023/08/25 04:00:19;;;;;;;886.90;565.38;;;;;;;;;;5086559;28;20036;-55
2023/08/25 04:02:45;;;;;;;887.45;586.88;;;;;;;;;;5083268;28;20512;-55
2023/08/25 04:05:10;;;;;;;863.97;489.38;;;;;;;;;;5084126;28;20464;-56
2023/08/25 04:07:35;;;;;;;844.95;432.23;;;;;;;;;;5084314;28;20111;-56
2023/08/25 04:10:00;;;;;;;870.97;526.87;;;;;;;;;;5086514;28;20027;-55
2023/08/25 04:12:26;;;;;;;850.27;448.03;;;;;;;;;;5081221;28;20296;-55
2023/08/25 04:14:51;;;;;;;851.28;469.20;;;;;;;;;;5085392;28;20260;-57
2023/08/25 04:17:16;;;;;;;849.55;449.52;;;;;;;;;;5084633;28;20088;-54
2023/08/25 04:19:41;;;;;;;848.73;449.67;;;;;;;;;;5086287;28;20507;-56
2023/08/25 04:22:07;;;;;;;844.05;426.92;;;;;;;;;;5084083;28;20356;-57
2023/08/25 04:24:32;;;;;;;850.38;451.60;;;;;;;;;;5086343;28;20028;-56
2023/08/25 04:26:57;;;;;;;860.37;494.77;;;;;;;;;;5083317;28;20405;-57
2023/08/25 04:29:22;;;;;;;850.75;454.98;;;;;;;;;;5086344;28;20330;-53
2023/08/25 04:31:48;;;;;;;873.63;517.15;;;;;;;;;;5082581;28;20020;-54
2023/08/25 04:34:13;;;;;;;890.40;571.55;;;;;;;;;;5081882;28;20073;-54
2023/08/25 04:36:39;;;;;;;904.50;615.53;;;;;;;;;;5084370;28;20027;-57
2023/08/25 04:39:05;;;;;;;870.97;506.85;;;;;;;;;;5085534;28;20120;-55
2023/08/25 04:41:30;;;;;;;864.20;490.90;;;;;;;;;;5082983;28;20506;-54
2023/08/25 04:43:55;;;;;;;879.67;514.72;;;;;;;;;;5082372;28;20379;-53
2023/08/25 04:46:20;;;;;;;864.77;481.23;;;;;;;;;;5083721;28;20088;-52
2023/08/25 04:48:46;;;;;;;875.03;528.88;;;;;;;;;;5082468;28;20323;-57
2023/08/25 04:51:12;;;;;;;890.40;537.33;;;;;;;;;;5082862;28;20093;-57
2023/08/25 04:53:37;;;;;;;884.80;509.40;;;;;;;;;;5082764;28;20747;-55
2023/08/25 04:56:02;;;;;;;1040.43;549.28;;;;;;;;;;5085197;28;20058;-54
2023/08/25 04:58:28;;;;;;;894.80;537.13;;;;;;;;;;5083108;28;20024;-55
2023/08/25 05:00:53;;;;;;;878.20;495.35;;;;;;;;;;5085480;28;20389;-55
2023/08/25 05:03:18;;;;;;;880.67;513.22;;;;;;;;;;5082812;28;20028;-53
2023/08/25 05:05:44;;;;;;;885.93;513.67;;;;;;;;;;5085190;28;20020;-57
2023/08/25 05:08:09;;;;;;;900.58;567.17;;;;;;;;;;5083842;28;20265;-53
2023/08/25 05:10:34;;;;;;;906.00;581.17;;;;;;;;;;5083306;28;20277;-54
2023/08/25 05:13:00;;;;;;;896.38;553.88;;;;;;;;;;5075643;28;20603;-55
2023/08/25 05:15:25;;;;;;;941.35;681.17;;;;;;;;;;5099514;28;20032;-57
2023/08/25 05:17:50;;;;;;;923.03;614.88;;;;;;;;;;5080853;28;20019;-52
2023/08/25 05:20:18;;;;;;;946.55;705.90;;;;;;;;;;5084506;28;20613;-55
2023/08/25 05:22:43;;;;;;;917.85;611.88;;;;;;;;;;5083101;28;20355;-54
2023/08/25 05:25:08;;;;;;;886.30;538.80;;;;;;;;;;5085143;28;20453;-57
2023/08/25 05:27:34;;;;;;;944.33;692.10;;;;;;;;;;5082797;28;20306;-57
2023/08/25 05:29:59;;;;;;;961.00;732.15;;;;;;;;;;5084957;28;20461;-54
2023/08/25 05:32:24;;;;;;;961.00;744.78;;;;;;;;;;5082923;28;20525;-55
2023/08/25 05:34:50;;;;;;;955.28;727.47;;;;;;;;;;5083277;28;20039;-57
2023/08/25 05:37:15;;;;;;;976.65;760.63;;;;;;;;;;5082977;28;20023;-56
2023/08/25 05:39:40;;;;;;;976.83;763.75;;;;;;;;;;5081813;28;20032;-56
2023/08/25 05:42:07;;;;;;;959.38;759.90;;;;;;;;;;5079234;28;20425;-54
2023/08/25 05:44:33;;;;;;;983.88;781.47;;;;;;;;;;5079829;28;20024;-58
2023/08/25 05:46:58;;;;;;;984.97;772.60;;;;;;;;;;5080494;28;20541;-56
2023/08/25 05:49:23;;;;;;;978.93;770.87;;;;;;;;;;5082916;28;20396;-55
2023/08/25 05:51:49;;;;;;;979.97;796.17;;;;;;;;;;5074296;28;20291;-55
2023/08/25 05:54:15;;;;;;;989.00;790.72;;;;;;;;;;5079609;28;20260;-54
2023/08/25 05:56:40;;;;;;;979.08;790.80;;;;;;;;;;5092738;28;20396;-57
2023/08/25 05:59:05;;;;;;;984.47;789.33;;;;;;;;;;5076806;28;20024;-56
2023/08/25 06:01:30;;;;;;;984.43;775.83;;;;;;;;;;5080834;28;20694;-53
2023/08/25 06:03:56;;;;;;;975.42;780.83;;;;;;;;;;5076417;28;20276;-57
2023/08/25 06:06:22;;;;;;;980.15;776.00;;;;;;;;;;5079082;28;20023;-53
2023/08/25 06:08:47;;;;;;;962.97;779.28;;;;;;;;;;5068987;28;20023;-54
2023/08/25 06:11:13;;;;;;;973.38;758.75;;;;;;;;;;5077729;28;20028;-57
2023/08/25 06:13:39;;;;;;;977.88;770.20;;;;;;;;;;5075199;28;20035;-55
2023/08/25 06:16:04;;;;;;;960.50;724.17;;;;;;;;;;5076163;28;20103;-55
2023/08/25 06:18:29;;;;;;;955.65;714.28;;;;;;;;;;5072425;28;20015;-55
2023/08/25 06:20:55;;;;;;;955.55;698.80;;;;;;;;;;5073948;28;20115;-55
2023/08/25 06:23:20;;;;;;;931.77;656.40;;;;;;;;;;5077868;28;20048;-57
2023/08/25 06:25:45;;;;;;;981.38;802.40;;;;;;;;;;5080485;28;20618;-57
2023/08/25 06:28:11;;;;;;;973.85;790.47;;;;;;;;;;5077176;28;20489;-57
2023/08/25 06:30:36;;;;;;;983.13;790.80;;;;;;;;;;5077894;28;20028;-57
2023/08/25 06:33:02;;;;;;;996.13;817.67;;;;;;;;;;5068208;28;20276;-57
2023/08/25 06:35:27;;;;;;;1006.22;822.97;;;;;;;;;;5072805;28;20024;-58
2023/08/25 06:37:52;;;;;;;986.03;791.75;;;;;;;;;;5082650;28;20047;-56
2023/08/25 06:40:17;;;;;;;988.53;804.00;;;;;;;;;;5079253;28;20019;-55
2023/08/25 06:42:43;;;;;;;974.88;771.35;;;;;;;;;;5069949;28;20261;-56
2023/08/25 06:45:08;;;;;;;934.30;695.97;;;;;;;;;;5075583;28;20072;-57
2023/08/25 06:47:34;;;;;;;1010.25;834.75;;;;;;;;;;5078539;28;20275;-55
2023/08/25 06:49:59;;;;;;;1009.85;837.80;;;;;;;;;;5076722;28;20491;-55
2023/08/25 06:52:25;;;;;;;964.50;808.17;;;;;;;;;;5075740;28;20060;-54
2023/08/25 06:54:50;;;;;;;914.53;730.23;;;;;;;;;;5074348;28;20031;-58
2023/08/25 06:57:15;;;;;;;904.40;727.83;;;;;;;;;;5074836;28;20650;-55
2023/08/25 06:59:40;;;;;;;964.60;834.87;;;;;;;;;;5078969;28;20126;-58
2023/08/25 07:02:07;;;;;;;913.70;741.67;;;;;;;;;;5069377;28;20264;-55
2023/08/25 07:04:32;;;;;;;920.20;760.90;;;;;;;;;;5073277;28;21780;-57
2023/08/25 07:06:58;;;;;;;943.85;789.67;;;;;;;;;;5086360;28;20043;-55
2023/08/25 07:09:24;;;;;;;930.08;771.78;;;;;;;;;;5085746;28;20024;-55
2023/08/25 07:11:49;;;;;;;929.95;770.90;;;;;;;;;;5082227;28;20016;-55
2023/08/25 07:14:16;;;;;;;934.23;781.40;;;;;;;;;;5079474;28;20059;-57
2023/08/25 07:16:41;;;;;;;930.88;780.30;;;;;;;;;;5070900;28;20272;-52
2023/08/25 07:19:06;;;;;;;932.63;782.33;;;;;;;;;;5080641;28;20024;-58
2023/08/25 07:21:32;;;;;;;936.53;790.80;;;;;;;;;;5078881;28;20362;-54
2023/08/25 07:23:57;;;;;;;942.05;806.20;;;;;;;;;;5071797;28;20268;-58
2023/08/25 07:26:22;;;;;;;943.23;819.07;;;;;;;;;;5070504;28;20031;-58
2023/08/25 07:28:47;;;;;;;947.90;829.40;;;;;;;;;;5081767;28;20359;-53
2023/08/25 07:31:13;;;;;;;947.00;830.00;;;;;;;;;;5078264;28;20112;-59
2023/08/25 07:33:38;;;;;;;955.40;848.63;;;;;;;;;;5085653;28;20028;-58
2023/08/25 07:36:04;;;;;;;963.33;857.63;;;;;;;;;;5081491;28;20032;-60
2023/08/25 07:38:30;;;;;;;1014.30;858.80;;;;;;;;;;5080849;28;20031;-58
2023/08/25 07:40:55;;;;;;;956.40;847.17;;;;;;;;;;5087379;28;20032;-59
2023/08/25 07:43:20;;;;;;;961.70;855.60;;;;;;;;;;5085981;28;20032;-58
2023/08/25 07:45:46;;;;;;;946.33;837.88;;;;;;;;;;5084665;28;20062;-59
2023/08/25 07:48:11;;;;;;;966.08;859.67;;;;;;;;;;5077838;28;20499;-59
2023/08/25 07:50:36;;;;;;;990.83;883.17;;;;;;;;;;5079124;28;20099;-59
2023/08/25 07:53:02;;;;;;;971.03;864.00;;;;;;;;;;5087713;28;20670;-57
2023/08/25 07:55:28;;;;;;;963.35;857.03;;;;;;;;;;5085396;28;20264;-59
2023/08/25 07:57:53;;;;;;;979.30;871.92;;;;;;;;;;5083159;28;20608;-58
2023/08/25 08:00:19;;;;;;;991.05;882.88;;;;;;;;;;5081565;28;20094;-57
2023/08/25 08:02:45;;;;;;;1008.08;898.75;;;;;;;;;;5081877;28;20024;-57
2023/08/25 08:05:10;;;;;;;989.90;881.80;;;;;;;;;;5075444;28;20036;-58
2023/08/25 08:07:36;;;;;;;1004.30;894.95;;;;;;;;;;5084534;28;20362;-59
2023/08/25 08:10:03;;;;;;;967.45;861.65;;;;;;;;;;5086721;28;20020;-58
2023/08/25 08:12:28;;;;;;;979.17;872.00;;;;;;;;;;5077984;28;20034;-59
2023/08/25 08:14:53;;;;;;;931.88;822.95;;;;;;;;;;5084258;28;20505;-58
2023/08/25 08:17:19;;;;;;;932.20;816.58;;;;;;;;;;5082475;28;20012;-58
2023/08/25 08:19:44;;;;;;;936.78;821.45;;;;;;;;;;5084527;28;20437;-58
2023/08/25 08:22:10;;;;;;;942.47;832.03;;;;;;;;;;5080447;28;20055;-58
2023/08/25 08:24:36;;;;;;;1034.82;924.95;;;;;;;;;;5072363;28;20492;-59
2023/08/25 08:27:01;;;;;;;1002.50;893.97;;;;;;;;;;5082339;28;20028;-56
2023/08/25 08:29:27;;;;;;;978.38;785.55;;;;;;;;;;5085727;28;20054;-57
2023/08/25 08:31:55;;;;;;;977.38;803.65;;;;;;;;;;5080857;28;20480;-58
2023/08/25 08:34:20;;;;;;;984.85;789.75;;;;;;;;;;5077122;28;20024;-56
2023/08/25 08:36:47;;;;;;;983.88;792.63;;;;;;;;;;5077410;28;20711;-59
2023/08/25 08:39:12;;;;;;;972.95;806.25;;;;;;;;;;5079937;28;20498;-60
2023/08/25 08:41:38;;;;;;;986.83;818.15;;;;;;;;;;5073929;28;20107;-56
2023/08/25 08:44:05;;;;;;;991.80;822.58;;;;;;;;;;5083738;28;20034;-56
2023/08/25 08:46:31;;;;;;;1002.70;832.15;;;;;;;;;;5085951;28;20020;-58
2023/08/25 08:48:57;;;;;;;1094.28;978.00;;;;;;;;;;5077596;28;20032;-58
2023/08/25 08:51:23;;;;;;;1108.82;991.33;;;;;;;;;;5083976;28;20020;-59
2023/08/25 08:53:50;;;;;;;1031.82;893.65;;;;;;;;;;5083785;28;20111;-60
2023/08/25 08:56:16;;;;;;;1027.82;867.95;;;;;;;;;;5084504;28;20020;-58
2023/08/25 08:58:42;;;;;;;1034.72;877.67;;;;;;;;;;5085320;28;20108;-58
2023/08/25 09:01:09;;;;;;;1127.57;999.80;;;;;;;;;;5079420;28;20016;-57
2023/08/25 09:03:37;;;;;;;1046.80;911.97;;;;;;;;;;5082192;28;20060;-55
2023/08/25 09:06:03;;;;;;;1050.30;922.60;;;;;;;;;;5082163;28;20024;-59
2023/08/25 09:08:29;;;;;;;1048.20;907.40;;;;;;;;;;5081307;28;20473;-58
2023/08/25 09:10:57;;;;;;;1151.20;999.90;;;;;;;;;;5074436;28;20069;-56
2023/08/25 09:13:23;;;;;;;1138.95;999.90;;;;;;;;;;5071324;28;20028;-57
2023/08/25 09:15:51;;;;;;;1215.27;999.90;;;;;;;;;;5075313;28;20040;-57
2023/08/25 09:18:16;;;;;;;1212.60;999.90;;;;;;;;;;5077098;28;20042;-56
2023/08/25 09:20:41;;;;;;;1182.73;999.90;;;;;;;;;;5081166;28;20066;-58
2023/08/25 09:23:08;;;;;;;1193.23;999.90;;;;;;;;;;5080757;28;20576;-57
2023/08/25 09:25:33;;;;;;;1244.82;999.90;;;;;;;;;;5079900;28;20348;-57
2023/08/25 09:27:59;;;;;;;1203.82;999.90;;;;;;;;;;5082704;28;20107;-57
2023/08/25 09:30:35;;;;;;;1235.10;999.90;;;;;;;;;;5077534;28;20135;-55
2023/08/25 09:33:04;;;;;;;1244.35;999.90;;;;;;;;;;5075322;28;20107;-57
2023/08/25 09:35:29;;;;;;;1251.90;999.90;;;;;;;;;;5075603;28;20027;-57
2023/08/25 09:37:55;;;;;;;1246.45;999.90;;;;;;;;;;5073155;28;20027;-58
2023/08/25 09:40:20;;;;;;;1229.23;999.90;;;;;;;;;;5082614;28;20077;-59
2023/08/25 09:42:45;;;;;;;1215.83;999.90;;;;;;;;;;5073845;28;20320;-58
2023/08/25 09:45:11;;;;;;;1226.35;999.90;;;;;;;;;;5078485;28;20276;-56
2023/08/25 09:47:37;;;;;;;1268.97;999.90;;;;;;;;;;5073790;28;20020;-59
2023/08/25 09:50:03;;;;;;;1229.55;999.90;;;;;;;;;;5079396;28;20035;-56
2023/08/25 09:52:32;;;;;;;1258.80;999.90;;;;;;;;;;5051224;28;20044;-56
2023/08/25 09:54:57;;;;;;;1268.35;999.90;;;;;;;;;;5074083;28;20040;-57
2023/08/25 09:57:23;;;;;;;1264.55;999.90;;;;;;;;;;5080679;28;20098;-57
2023/08/25 09:59:49;;;;;;;1259.55;999.90;;;;;;;;;;5076630;28;20026;-59
2023/08/25 10:02:15;;;;;;;1257.97;999.90;;;;;;;;;;5068265;28;20024;-57
2023/08/25 10:04:41;;;;;;;1170.85;999.90;;;;;;;;;;5073341;28;20036;-58
2023/08/25 10:07:06;;;;;;;1102.40;993.13;;;;;;;;;;5069613;28;20027;-59
2023/08/25 10:09:32;;;;;;;1096.03;988.27;;;;;;;;;;5083549;28;20028;-59
2023/08/25 10:11:58;;;;;;;1095.88;988.38;;;;;;;;;;5074005;28;20024;-58
2023/08/25 10:14:26;;;;;;;1099.63;991.42;;;;;;;;;;5084851;28;20026;-55
2023/08/25 10:16:52;;;;;;;1081.65;975.00;;;;;;;;;;5084982;28;20024;-57
2023/08/25 10:19:24;;;;;;;1088.15;979.35;;;;;;;;;;5084125;28;20469;-58
2023/08/25 10:21:49;;;;;;;1083.65;975.88;;;;;;;;;;5072752;28;20029;-59
2023/08/25 10:24:17;;;;;;;1080.13;973.58;;;;;;;;;;5074018;28;20358;-57
2023/08/25 10:26:44;;;;;;;1072.88;964.53;;;;;;;;;;5084701;28;20020;-56
2023/08/25 10:29:09;;;;;;;1064.43;955.63;;;;;;;;;;5084333;28;20107;-59
2023/08/25 10:31:35;;;;;;;1065.63;956.42;;;;;;;;;;5084266;28;20103;-54
2023/08/25 10:34:00;;;;;;;1061.35;952.83;;;;;;;;;;5082782;28;20027;-55
2023/08/25 10:36:25;;;;;;;1056.77;948.73;;;;;;;;;;5084305;28;20400;-58
2023/08/25 10:38:54;;;;;;;1055.67;947.77;;;;;;;;;;5072263;28;20036;-58
2023/08/25 10:41:20;;;;;;;1069.82;960.85;;;;;;;;;;5067413;28;20513;-59
2023/08/25 10:43:46;;;;;;;1069.18;960.13;;;;;;;;;;5067304;28;20046;-58
2023/08/25 10:46:12;;;;;;;1068.82;960.15;;;;;;;;;;5068116;28;20319;-58
2023/08/25 10:48:38;;;;;;;1077.80;969.15;;;;;;;;;;5067884;28;20024;-57
2023/08/25 10:51:20;;;;;;;1068.57;961.85;;;;;;;;;;5066078;28;20044;-56
2023/08/25 10:53:46;;;;;;;1114.75;998.38;;;;;;;;;;5081277;28;20073;-59
2023/08/25 10:56:13;;;;;;;1135.43;999.90;;;;;;;;;;5067178;28;20092;-58
2023/08/25 10:58:39;;;;;;;1217.67;999.90;;;;;;;;;;5082842;28;20054;-58
2023/08/25 11:01:04;;;;;;;1201.30;999.90;;;;;;;;;;5083148;28;20055;-58
2023/08/25 11:03:45;;;;;;;1241.90;999.90;;;;;;;;;;5083452;28;20012;-57
2023/08/25 11:06:30;;;;;;;1235.40;999.90;;;;;;;;;;5079807;28;20029;-58
2023/08/25 11:08:56;;;;;;;1236.45;999.90;;;;;;;;;;5076389;28;20055;-59
2023/08/25 11:11:21;;;;;;;1244.20;999.90;;;;;;;;;;5077078;28;20437;-59
2023/08/25 11:13:46;;;;;;;1246.30;999.90;;;;;;;;;;5084179;28;20085;-58
2023/08/25 11:16:13;;;;;;;1196.80;999.90;;;;;;;;;;5075357;28;20019;-58
2023/08/25 11:18:39;;;;;;;1242.82;999.90;;;;;;;;;;5073971;28;20032;-59
2023/08/25 11:21:04;;;;;;;1225.80;999.90;;;;;;;;;;5072853;28;20024;-57
2023/08/25 11:23:40;;;;;;;1214.32;999.90;;;;;;;;;;5071941;28;20480;-58
2023/08/25 11:26:07;;;;;;;1240.63;999.90;;;;;;;;;;5076727;28;20480;-60
2023/08/25 11:28:32;;;;;;;1250.35;999.90;;;;;;;;;;5078488;28;20016;-58
2023/08/25 11:30:58;;;;;;;1251.78;999.90;;;;;;;;;;5076988;28;20097;-56
2023/08/25 11:33:25;;;;;;;1250.85;999.90;;;;;;;;;;5080132;28;20027;-58
2023/08/25 11:35:51;;;;;;;1242.47;999.90;;;;;;;;;;5087457;28;20040;-57
2023/08/25 11:38:17;;;;;;;1229.43;999.90;;;;;;;;;;5086760;28;20425;-58
2023/08/25 11:40:42;;;;;;;1266.78;999.90;;;;;;;;;;5085697;28;20031;-58
2023/08/25 11:43:07;;;;;;;1257.70;999.90;;;;;;;;;;5086438;28;20103;-59
2023/08/25 11:45:33;;;;;;;1201.17;999.90;;;;;;;;;;5085623;28;20654;-57
2023/08/25 11:47:58;;;;;;;1191.80;999.90;;;;;;;;;;5086812;28;20069;-59
2023/08/25 11:50:27;;;;;;;1189.10;999.90;;;;;;;;;;5086396;28;20024;-59
2023/08/25 11:52:54;;;;;;;1228.30;999.90;;;;;;;;;;5085072;28;20281;-58
2023/08/25 11:55:19;;;;;;;1241.07;999.90;;;;;;;;;;5086915;28;20020;-57
2023/08/25 11:57:49;;;;;;;1175.75;999.90;;;;;;;;;;5087140;28;20027;-59
2023/08/25 12:00:15;;;;;;;1148.15;999.90;;;;;;;;;;5087296;28;20024;-58
2023/08/25 12:02:40;;;;;;;1145.85;999.90;;;;;;;;;;5084200;28;20119;-57
2023/08/25 12:05:05;;;;;;;1167.13;999.90;;;;;;;;;;5066746;28;20028;-59
2023/08/25 12:07:33;;;;;;;1135.82;999.90;;;;;;;;;;5084540;28;20524;-58
2023/08/25 12:09:58;;;;;;;;;;;;;;;;;;5087010;28;20106;-56
2023/08/25 12:12:24;;;;;;;1103.72;992.60;;;;;;;;;;5086747;28;20007;-57
2023/08/25 12:14:50;;;;;;;1095.75;988.15;;;;;;;;;;5086538;28;20020;-59
2023/08/25 12:17:26;;;;;;;1086.40;980.28;;;;;;;;;;5086261;28;20329;-57
2023/08/25 12:19:51;;;;;;;1089.35;986.88;;;;;;;;;;5082794;28;20072;-58
2023/08/25 12:22:17;;;;;;;1083.25;976.20;;;;;;;;;;5085627;28;20059;-55
2023/08/25 12:24:42;;;;;;;1081.20;973.78;;;;;;;;;;5066253;28;20119;-58
2023/08/25 12:27:08;;;;;;;1086.28;980.00;;;;;;;;;;5081082;28;20081;-58
2023/08/25 12:29:33;;;;;;;1093.95;993.70;;;;;;;;;;5086055;28;20023;-58
2023/08/25 12:31:59;;;;;;;1086.87;986.90;;;;;;;;;;5086190;28;20492;-58
2023/08/25 12:34:24;;;;;;;1087.70;982.10;;;;;;;;;;5086096;28;20260;-58
2023/08/25 12:36:49;;;;;;;1098.23;991.20;;;;;;;;;;5082169;28;20105;-57
2023/08/25 12:39:15;;;;;;;1110.05;997.40;;;;;;;;;;5081604;28;20058;-58
2023/08/25 12:41:40;;;;;;;1093.72;986.67;;;;;;;;;;5085636;28;20575;-58
2023/08/25 12:44:05;;;;;;;1090.95;989.50;;;;;;;;;;5085831;28;20101;-58
2023/08/25 12:46:31;;;;;;;1089.47;981.87;;;;;;;;;;5085939;28;20639;-58
2023/08/25 12:48:56;;;;;;;1096.75;990.40;;;;;;;;;;5085824;28;20032;-56
2023/08/25 12:51:21;;;;;;;1107.97;997.47;;;;;;;;;;5085198;28;20032;-58
2023/08/25 12:53:47;;;;;;;1111.63;997.73;;;;;;;;;;5082274;28;20028;-59
2023/08/25 12:56:12;;;;;;;1127.50;999.90;;;;;;;;;;5081445;28;20102;-55
2023/08/25 12:58:38;;;;;;;1095.90;989.63;;;;;;;;;;5085739;28;20036;-57
2023/08/25 13:01:06;;;;;;;1100.07;989.55;;;;;;;;;;5085695;28;20473;-57
2023/08/25 13:03:31;;;;;;;1082.90;974.05;;;;;;;;;;5083673;28;20023;-57
2023/08/25 13:05:57;;;;;;;1078.25;969.90;;;;;;;;;;5085893;28;20024;-58
2023/08/25 13:08:23;;;;;;;1075.47;968.20;;;;;;;;;;5085673;28;20020;-59
2023/08/25 13:10:50;;;;;;;1080.13;981.05;;;;;;;;;;5078150;28;20685;-57
2023/08/25 13:13:16;;;;;;;1081.32;975.50;;;;;;;;;;5079080;28;20032;-56
2023/08/25 13:15:41;;;;;;;1087.63;979.47;;;;;;;;;;5061708;28;21011;-58
2023/08/25 13:18:06;;;;;;;1084.60;975.20;;;;;;;;;;5068770;28;20119;-57
2023/08/25 13:20:31;;;;;;;1073.03;965.63;;;;;;;;;;5072307;28;20020;-58
2023/08/25 13:22:57;;;;;;;1060.17;953.20;;;;;;;;;;5081074;28;20776;-59
2023/08/25 13:25:22;;;;;;;1068.13;966.53;;;;;;;;;;5073458;28;20629;-59
2023/08/25 13:27:47;;;;;;;1066.37;958.20;;;;;;;;;;5075294;28;20094;-59
2023/08/25 13:30:13;;;;;;;1060.70;954.80;;;;;;;;;;5074499;28;20051;-55
2023/08/25 13:32:38;;;;;;;1066.80;959.65;;;;;;;;;;5081020;28;20369;-57
2023/08/25 13:35:04;;;;;;;1075.10;967.25;;;;;;;;;;5078551;28;20670;-56
2023/08/25 13:37:30;;;;;;;1070.95;968.55;;;;;;;;;;5079690;28;20016;-57
2023/08/25 13:39:56;;;;;;;1130.45;999.90;;;;;;;;;;5075369;28;20357;-56
2023/08/25 13:42:21;;;;;;;1116.43;999.90;;;;;;;;;;5080726;28;20024;-56